createdAt,value
2018-02-15T07:55:52.901Z,8.53
2018-02-15T08:29:22.981Z,7.50
2018-02-15T09:06:19.559Z,7.60
2018-02-15T09:30:54.241Z,6.47
2018-02-15T09:33:30.357Z,6.70
2018-02-15T09:37:03.947Z,6.20
2018-02-15T09:43:06.117Z,6.57
2018-02-15T09:48:59.370Z,6.17
2018-02-15T09:59:01.127Z,5.90
2018-02-15T10:01:31.837Z,6.20
2018-02-15T10:04:04.400Z,5.27
2018-02-15T10:06:53.086Z,6.83
2018-02-15T10:21:26.039Z,6.97
2018-02-15T10:23:57.457Z,5.63
2018-02-15T10:26:26.446Z,6.70
2018-02-15T10:28:55.138Z,5.37
2018-02-15T10:31:26.511Z,4.90
2018-02-15T10:33:54.212Z,5.90
2018-02-15T10:36:23.612Z,5.80
2018-02-15T10:38:51.326Z,5.70
2018-02-15T10:41:19.336Z,5.13
2018-02-15T10:43:47.115Z,5.70
2018-02-15T10:46:15.027Z,6.03
2018-02-15T10:48:42.765Z,6.13
2018-02-15T10:51:10.525Z,6.50
2018-02-15T10:53:38.284Z,6.67
2018-02-15T10:56:06.044Z,7.73
2018-02-15T10:58:34.680Z,6.23
2018-02-15T11:01:07.892Z,6.23
2018-02-15T11:03:35.805Z,6.93
2018-02-15T11:06:03.530Z,6.10
2018-02-15T11:08:31.296Z,4.90
2018-02-15T11:10:59.138Z,5.87
2018-02-15T11:13:26.844Z,7.17
2018-02-15T11:15:54.563Z,7.53
2018-02-15T11:18:22.300Z,6.20
2018-02-15T11:20:50.044Z,7.80
2018-02-15T11:23:17.744Z,6.70
2018-02-15T11:25:45.464Z,6.77
2018-02-15T11:28:13.836Z,5.97
2018-02-15T11:30:41.543Z,7.70
2018-02-15T11:33:09.255Z,8.80
2018-02-15T11:35:36.997Z,7.83
2018-02-15T11:38:04.730Z,10.20
2018-02-15T11:40:33.382Z,7.67
2018-02-15T11:43:01.132Z,6.80
2018-02-15T11:45:28.821Z,8.07
2018-02-15T11:47:56.568Z,8.23
2018-02-15T11:50:24.266Z,6.60
2018-02-15T11:52:51.978Z,7.57
2018-02-15T11:55:19.740Z,6.43
2018-02-15T11:57:47.434Z,7.20
2018-02-15T12:00:15.213Z,5.37
2018-02-15T12:02:42.911Z,6.50
2018-02-15T12:05:10.663Z,7.00
2018-02-15T12:07:38.408Z,6.40
2018-02-15T12:10:06.231Z,6.53
2018-02-15T12:12:33.932Z,6.10
2018-02-15T12:15:01.658Z,8.43
2018-02-15T12:17:29.431Z,7.60
2018-02-15T12:19:57.145Z,7.10
2018-02-15T12:22:24.949Z,7.70
2018-02-15T12:24:52.837Z,8.23
2018-02-15T12:27:20.620Z,8.77
2018-02-15T12:29:48.343Z,7.10
2018-02-15T12:32:16.146Z,6.53
2018-02-15T12:34:45.250Z,7.07
2018-02-15T12:37:13.272Z,7.30
2018-02-15T12:39:41.608Z,7.23
2018-02-15T12:42:09.324Z,8.10
2018-02-15T12:44:37.138Z,7.10
2018-02-15T12:47:05.219Z,7.13
2018-02-15T12:49:33.014Z,8.00
2018-02-15T12:52:00.745Z,6.17
2018-02-15T12:54:29.114Z,7.70
2018-02-15T12:56:58.927Z,7.60
2018-02-15T12:59:26.723Z,7.83
2018-02-15T13:01:54.508Z,6.37
2018-02-15T13:04:22.226Z,7.57
2018-02-15T13:06:49.934Z,7.63
2018-02-15T13:09:17.705Z,7.00
2018-02-15T13:11:45.488Z,7.43
2018-02-15T13:14:13.525Z,8.50
2018-02-15T13:16:52.986Z,8.20
2018-02-15T13:19:32.447Z,7.70
2018-02-15T13:22:00.210Z,6.63
2018-02-15T13:24:28.013Z,7.40
2018-02-15T13:26:55.752Z,7.13
2018-02-15T13:29:23.456Z,7.67
2018-02-15T13:31:51.294Z,8.43
2018-02-15T13:34:18.964Z,7.70
2018-02-15T13:36:46.677Z,7.47
2018-02-15T13:39:15.050Z,8.00
2018-02-15T13:41:42.769Z,7.40
2018-02-15T13:44:10.548Z,7.90
2018-02-15T13:46:39.185Z,7.40
2018-02-15T13:49:06.951Z,8.20
2018-02-15T13:51:35.418Z,8.63
2018-02-15T13:54:03.496Z,8.20
2018-02-15T13:56:31.589Z,8.10
2018-02-15T13:58:59.352Z,7.03
2018-02-15T14:01:27.855Z,8.33
2018-02-15T14:03:55.656Z,8.77
2018-02-15T14:06:23.437Z,8.07
2018-02-15T14:08:51.172Z,7.73
2018-02-15T14:11:19.010Z,8.43
2018-02-15T14:13:46.825Z,8.80
2018-02-15T14:16:14.539Z,8.17
2018-02-15T14:18:42.929Z,7.97
2018-02-15T14:21:10.770Z,8.57
2018-02-15T14:23:38.542Z,8.57
2018-02-15T14:26:06.318Z,8.53
2018-02-15T14:28:34.065Z,9.20
2018-02-15T14:31:02.456Z,9.33
2018-02-15T14:33:30.598Z,9.10
2018-02-15T14:35:59.531Z,7.70
2018-02-15T14:38:27.209Z,8.73
2018-02-15T14:40:54.977Z,7.90
2018-02-15T14:43:22.953Z,11.40
2018-02-15T14:45:50.727Z,11.50
2018-02-15T14:48:18.468Z,11.73
2018-02-15T14:50:46.445Z,12.23
2018-02-15T14:53:14.184Z,13.47
2018-02-15T14:55:41.918Z,14.80
2018-02-15T14:58:09.714Z,11.87
2018-02-15T15:00:37.530Z,15.90
2018-02-15T15:03:05.335Z,16.97
2018-02-15T15:05:34.194Z,10.10
2018-02-15T15:08:01.925Z,11.10
2018-02-15T15:10:29.681Z,14.77
2018-02-15T15:12:57.526Z,13.20
2018-02-15T15:15:25.285Z,10.80
2018-02-15T15:17:53.040Z,9.17
2018-02-15T15:20:20.834Z,11.40
2018-02-15T15:22:48.674Z,10.77
2018-02-15T15:25:16.482Z,10.93
2018-02-15T15:27:44.348Z,10.63
2018-02-15T15:30:12.189Z,10.67
2018-02-15T15:32:40.127Z,10.53
2018-02-15T15:35:08.142Z,25.77
2018-02-15T15:37:36.284Z,16.43
2018-02-15T15:40:04.062Z,12.20
2018-02-15T15:42:31.995Z,14.33
2018-02-15T15:44:59.766Z,12.23
2018-02-15T15:47:27.595Z,12.03
2018-02-15T15:49:56.680Z,12.23
2018-02-15T15:52:24.474Z,11.77
2018-02-15T15:54:52.241Z,11.23
2018-02-15T15:57:20.042Z,10.53
2018-02-15T15:59:47.896Z,14.20
2018-02-15T16:02:15.713Z,10.27
2018-02-15T16:04:43.954Z,10.07
2018-02-15T16:07:12.719Z,11.40
2018-02-15T16:09:41.635Z,10.83
2018-02-15T16:12:09.769Z,12.40
2018-02-15T16:14:37.667Z,12.90
2018-02-15T16:17:05.578Z,13.10
2018-02-15T16:19:33.354Z,13.10
2018-02-15T16:22:01.399Z,16.70
2018-02-15T16:24:29.214Z,16.40
2018-02-15T16:26:57.035Z,17.57
2018-02-15T16:29:24.851Z,20.43
2018-02-15T16:31:52.758Z,19.47
2018-02-15T16:34:20.588Z,15.63
2018-02-15T16:36:50.723Z,17.13
2018-02-15T16:39:18.613Z,16.30
2018-02-15T16:41:48.069Z,11.70
2018-02-15T16:44:16.500Z,10.00
2018-02-15T16:46:45.020Z,10.73
2018-02-15T16:49:13.264Z,10.73
2018-02-15T16:51:41.104Z,10.63
2018-02-15T16:54:08.964Z,11.70
2018-02-15T16:56:38.140Z,12.03
2018-02-15T16:59:06.708Z,12.10
2018-02-15T17:01:35.514Z,12.93
2018-02-15T17:04:03.362Z,14.00
2018-02-15T17:06:31.327Z,23.07
2018-02-15T17:08:59.320Z,13.93
2018-02-15T17:11:27.219Z,12.77
2018-02-15T17:13:55.460Z,11.63
2018-02-15T17:16:25.642Z,12.17
2018-02-15T17:18:53.928Z,12.00
2018-02-15T17:21:23.062Z,8.67
2018-02-15T17:23:50.778Z,8.63
2018-02-15T17:26:19.029Z,8.37
2018-02-15T17:28:47.115Z,8.00
2018-02-15T17:31:15.729Z,12.20
2018-02-15T17:33:43.548Z,9.80
2018-02-15T17:36:11.521Z,9.63
2018-02-15T17:38:39.581Z,8.23
2018-02-15T17:41:09.027Z,7.57
2018-02-15T17:43:37.219Z,7.90
2018-02-15T17:46:07.801Z,10.23
2018-02-15T17:48:36.827Z,10.47
2018-02-15T17:51:04.682Z,11.20
2018-02-15T17:53:32.554Z,10.20
2018-02-15T17:56:00.604Z,14.10
2018-02-15T17:58:28.485Z,16.20
2018-02-15T18:00:56.368Z,13.57
2018-02-15T18:03:25.030Z,16.47
2018-02-15T18:05:52.848Z,18.90
2018-02-15T18:08:20.624Z,18.67
2018-02-15T18:10:48.336Z,16.63
2018-02-15T18:13:16.110Z,19.97
2018-02-15T18:15:44.358Z,21.30
2018-02-15T18:18:12.162Z,26.07
2018-02-15T18:20:40.006Z,22.20
2018-02-15T18:23:08.850Z,18.53
2018-02-15T18:25:36.734Z,19.67
2018-02-15T18:28:04.623Z,10.03
2018-02-15T18:30:32.420Z,11.03
2018-02-15T18:33:00.221Z,10.13
2018-02-15T18:35:28.997Z,11.70
2018-02-15T18:37:56.856Z,11.57
2018-02-15T18:40:24.589Z,10.60
2018-02-15T18:42:52.496Z,13.00
2018-02-15T18:45:21.288Z,11.17
2018-02-15T18:47:49.210Z,10.30
2018-02-15T18:50:17.036Z,9.60
2018-02-15T18:52:44.827Z,10.40
2018-02-15T18:55:12.848Z,11.50
2018-02-15T18:57:42.161Z,10.30
2018-02-15T19:00:10.093Z,19.70
2018-02-15T19:02:37.948Z,14.50
2018-02-15T19:05:05.714Z,11.97
2018-02-15T19:07:33.570Z,10.30
2018-02-15T19:10:01.523Z,11.30
2018-02-15T19:12:29.706Z,10.37
2018-02-15T19:14:57.815Z,13.07
2018-02-15T19:17:25.802Z,12.03
2018-02-15T19:19:53.945Z,10.60
2018-02-15T19:22:23.050Z,11.97
2018-02-15T19:24:51.685Z,10.23
2018-02-15T19:27:19.700Z,10.03
2018-02-15T19:29:49.524Z,14.20
2018-02-15T19:32:20.198Z,12.60
2018-02-15T19:34:48.003Z,13.57
2018-02-15T19:37:16.344Z,15.03
2018-02-15T19:39:44.953Z,13.70
2018-02-15T19:42:12.800Z,16.40
2018-02-15T19:44:40.666Z,14.57
2018-02-15T19:47:09.958Z,13.30
2018-02-15T19:49:38.775Z,12.50
2018-02-15T19:52:07.125Z,15.37
2018-02-15T19:54:36.501Z,13.27
2018-02-15T19:57:05.370Z,13.90
2018-02-15T19:59:33.415Z,12.47
2018-02-15T20:02:01.865Z,11.63
2018-02-15T20:04:29.977Z,13.17
2018-02-15T20:06:58.986Z,13.87
2018-02-15T20:09:27.613Z,15.07
2018-02-15T20:11:55.875Z,15.37
2018-02-15T20:14:24.241Z,15.97
2018-02-15T20:16:52.808Z,14.17
2018-02-15T20:19:22.192Z,14.77
2018-02-15T20:21:51.452Z,13.37
2018-02-15T20:24:19.869Z,13.83
2018-02-15T20:26:53.421Z,13.67
2018-02-15T20:29:21.333Z,12.90
2018-02-15T20:31:49.229Z,13.17
2018-02-15T20:34:17.477Z,13.77
2018-02-15T20:36:46.354Z,14.70
2018-02-15T20:39:19.818Z,14.17
2018-02-15T20:41:47.817Z,13.77
2018-02-15T20:44:15.679Z,15.40
2018-02-15T20:46:44.598Z,14.73
2018-02-15T20:49:18.045Z,19.30
2018-02-15T20:51:51.468Z,17.40
2018-02-15T20:54:24.783Z,18.73
2018-02-15T20:56:52.808Z,16.57
2018-02-15T20:59:20.702Z,18.37
2018-02-15T21:01:48.456Z,17.27
2018-02-15T21:04:16.260Z,14.60
2018-02-15T21:06:44.008Z,14.53
2018-02-15T21:09:11.989Z,15.93
2018-02-15T21:11:39.828Z,15.53
2018-02-15T21:14:07.659Z,15.10
2018-02-15T21:16:35.517Z,15.73
2018-02-15T21:19:03.976Z,15.87
2018-02-15T21:21:32.030Z,17.17
2018-02-15T21:23:59.874Z,15.40
2018-02-15T21:26:27.635Z,16.77
2018-02-15T21:28:56.206Z,19.93
2018-02-15T21:31:23.951Z,17.37
2018-02-15T21:33:51.937Z,15.30
2018-02-15T21:36:19.661Z,16.17
2018-02-15T21:38:47.437Z,14.37
2018-02-15T21:41:15.217Z,15.37
2018-02-15T21:43:42.949Z,13.80
2018-02-15T21:46:10.645Z,13.00
2018-02-15T21:48:38.408Z,12.70
2018-02-15T21:51:06.096Z,13.83
2018-02-15T21:53:33.880Z,12.60
2018-02-15T21:56:01.622Z,12.37
2018-02-15T21:58:29.378Z,13.77
2018-02-15T22:00:57.131Z,14.87
2018-02-15T22:03:24.838Z,15.73
2018-02-15T22:05:52.596Z,16.43
2018-02-15T22:08:20.320Z,17.00
2018-02-15T22:10:48.104Z,15.70
2018-02-15T22:13:15.878Z,16.70
2018-02-15T22:15:43.588Z,19.03
2018-02-15T22:18:11.366Z,25.00
2018-02-15T22:20:39.129Z,18.17
2018-02-15T22:23:06.892Z,13.40
2018-02-15T22:25:34.661Z,12.87
2018-02-15T22:28:02.403Z,13.47
2018-02-15T22:30:30.188Z,13.37
2018-02-15T22:32:57.916Z,12.77
2018-02-15T22:35:25.697Z,15.43
2018-02-15T22:37:53.453Z,15.77
2018-02-15T22:40:21.226Z,16.33
2018-02-15T22:42:48.961Z,17.87
2018-02-15T22:45:16.739Z,17.97
2018-02-15T22:47:44.442Z,16.43
2018-02-15T22:50:12.225Z,17.60
2018-02-15T22:52:39.965Z,17.27
2018-02-15T22:55:07.713Z,16.63
2018-02-15T22:57:35.429Z,16.70
2018-02-15T23:00:03.318Z,16.00
2018-02-15T23:02:30.994Z,16.20
2018-02-15T23:04:58.732Z,15.27
2018-02-15T23:07:26.443Z,15.80
2018-02-15T23:09:54.208Z,15.33
2018-02-15T23:12:21.974Z,14.80
2018-02-15T23:14:50.677Z,15.17
2018-02-15T23:17:18.371Z,15.10
2018-02-15T23:19:46.203Z,18.27
2018-02-15T23:22:13.995Z,18.27
2018-02-15T23:24:41.736Z,17.30
2018-02-15T23:27:09.418Z,18.10
2018-02-15T23:29:37.151Z,17.33
2018-02-15T23:32:04.857Z,21.50
2018-02-15T23:34:32.568Z,18.67
2018-02-15T23:37:00.348Z,19.87
2018-02-15T23:39:28.106Z,17.87
2018-02-15T23:41:55.812Z,19.37
2018-02-15T23:44:23.563Z,17.87
2018-02-15T23:46:51.287Z,19.10
2018-02-15T23:49:19.025Z,22.40
2018-02-15T23:51:46.735Z,19.00
2018-02-15T23:54:14.477Z,18.40
2018-02-15T23:56:42.151Z,17.77
2018-02-15T23:59:09.887Z,17.90
